METAR Data
IDs: Format: Raw Decoded Include TAF

Data at: 0125 UTC 24 Sep 2018

KY70 240115Z AUTO 07006KT 10SM CLR 16/08 A3019 RMK AO2 T01550080
KY70 240055Z AUTO 07006KT 10SM CLR 16/08 A3019 RMK AO2 T01560079
KY70 240035Z AUTO 07005KT 10SM CLR 16/08 A3017 RMK AO2 T01600078
KY70 240015Z AUTO 07004KT 10SM CLR 16/08 A3017 RMK AO2 T01580083
KY70 232355Z AUTO 07004KT 10SM CLR 17/08 A3016 RMK AO2 T01700077 10210 20170
KY70 232335Z AUTO 06004KT 10SM CLR 17/08 A3016 RMK AO2 T01740082
KY70 232315Z AUTO 06004KT 10SM CLR 19/07 A3016 RMK AO2 T01890073
KY70 232255Z AUTO 08004KT 10SM CLR 19/08 A3016 RMK AO2 T01920078
KY70 232235Z AUTO 10005KT 10SM CLR 20/07 A3016 RMK AO2 T01990074
KY70 232215Z AUTO 09007KT 10SM CLR 20/07 A3016 RMK AO2 T02030070
KY70 232155Z AUTO 09006KT 10SM CLR 21/07 A3016 RMK AO2 T02060071
KY70 232135Z AUTO 10007KT 10SM CLR 21/06 A3015 RMK AO2 T02070064
KY70 232115Z AUTO 10004KT 10SM CLR 21/07 A3016 RMK AO2 T02070065
KY70 232055Z AUTO 14005KT 10SM CLR 21/07 A3015 RMK AO2 T02070071
KY70 232035Z AUTO 07004KT 10SM CLR 21/07 A3015 RMK AO2 T02060073
KY70 232015Z AUTO 09006KT 10SM CLR 21/08 A3016 RMK AO2 T02060076
KY70 231955Z AUTO 07005KT 10SM CLR 20/08 A3016 RMK AO2 T02030075
KY70 231935Z AUTO 11007KT 10SM CLR 20/08 A3016 RMK AO2 T02030083
KY70 231915Z AUTO 11004KT 10SM CLR 20/08 A3017 RMK AO2 T01990076
KY70 231855Z AUTO 00000KT 10SM CLR 20/08 A3017 RMK AO2 T01960077
KY70 231835Z AUTO 11003KT 10SM CLR 19/08 A3019 RMK AO2 T01910077
KY70 231815Z AUTO 10006KT 10SM CLR 19/08 A3020 RMK AO2 T01900077
KY70 231755Z AUTO 14004KT 10SM CLR 19/08 A3020 RMK AO2 T01900075 10190 20065
KY70 231735Z AUTO 08005KT 10SM CLR 19/08 A3021 RMK AO2 T01850082
KY70 231715Z AUTO 03004KT 10SM CLR 18/09 A3022 RMK AO2 T01810085
KY70 231655Z AUTO 07005KT 10SM CLR 18/08 A3022 RMK AO2 T01770079
KY70 231635Z AUTO 00000KT 10SM CLR 17/08 A3022 RMK AO2 T01720082
KY70 231615Z AUTO 08005KT 10SM CLR 17/08 A3023 RMK AO2 T01700080
KY70 231555Z AUTO 12004KT 10SM CLR 16/08 A3024 RMK AO2 T01630077
KY70 231535Z AUTO 09004KT 10SM CLR 16/08 A3024 RMK AO2 T01620077
KY70 231515Z AUTO 11004KT 10SM CLR 16/08 A3024 RMK AO2 T01570080
KY70 231455Z AUTO 12003KT 10SM CLR 15/08 A3024 RMK AO2 T01500080
KY70 231435Z AUTO 03003KT 10SM CLR 14/08 A3025 RMK AO2 T01410084
KY70 231415Z AUTO 00000KT 10SM CLR 13/09 A3024 RMK AO2 T01340094
KY70 231355Z AUTO 00000KT 10SM CLR 12/09 A3024 RMK AO2 T01200091
KY70 231335Z AUTO 00000KT 10SM CLR 11/09 A3024 RMK AO2 T01120091
KY70 231315Z AUTO 00000KT 10SM CLR 10/09 A3024 RMK AO2 T01000091
KY70 231255Z AUTO 00000KT 10SM CLR 09/08 A3024 RMK AO2 T00900082
KY70 231235Z AUTO 00000KT 7SM CLR 08/07 A3024 RMK AO2 T00770069
KY70 231215Z AUTO 10003KT 2 1/2SM BR SCT002 07/06 A3024 RMK AO2 T00650057
KY70 231155Z AUTO 00000KT 1/2SM FG BKN002 06/05 A3024 RMK AO2 T00620054 10080 20053
KY70 231135Z AUTO 00000KT 2 1/2SM BR SCT002 07/06 A3022 RMK AO2 VIS 1V4 T00650056
KY70 231115Z AUTO 00000KT 1/2SM FG BKN002 05/05 A3022 RMK AO2 T00530045
KY70 231055Z AUTO 00000KT 10SM CLR 06/05 A3022 RMK AO2 T00570050
KY70 231035Z AUTO 09003KT 7SM CLR 06/05 A3022 RMK AO2 T00590051
KY70 231015Z AUTO 10003KT 7SM CLR 06/05 A3021 RMK AO2 T00600052
KY70 230955Z AUTO 09003KT 7SM CLR 06/05 A3021 RMK AO2 T00610053
KY70 230935Z AUTO 00000KT 10SM CLR 06/06 A3022 RMK AO2 T00630055
KY70 230915Z AUTO 00000KT 7SM SCT002 07/06 A3022 RMK AO2 T00650057
KY70 230855Z AUTO 00000KT 7SM CLR 07/06 A3021 RMK AO2 T00660058
KY70 230835Z AUTO 00000KT 5SM BR CLR 07/06 A3021 RMK AO2 T00670059
KY70 230815Z AUTO 00000KT 5SM BR CLR 07/06 A3021 RMK AO2 T00660058
KY70 230755Z AUTO 00000KT 4SM BR CLR 07/06 A3021 RMK AO2 T00680060
KY70 230735Z AUTO 00000KT 10SM CLR 07/06 A3021 RMK AO2 T00660057
KY70 230715Z AUTO 00000KT 7SM CLR 07/06 A3021 RMK AO2 T00700061
KY70 230655Z AUTO 00000KT 7SM CLR 07/06 A3021 RMK AO2 T00670057
KY70 230635Z AUTO 00000KT 10SM CLR 07/06 A3021 RMK AO2 T00680056
KY70 230615Z AUTO 00000KT 10SM CLR 08/06 A3021 RMK AO2 T00790062
KY70 230555Z AUTO 00000KT 10SM CLR 08/06 A3021 RMK AO2 T00750063 10125 20071 401710069
KY70 230535Z AUTO 17003KT 10SM CLR 09/07 A3021 RMK AO2 T00870067
KY70 230515Z AUTO 00000KT 10SM CLR 08/07 A3022 RMK AO2 T00790066
KY70 230455Z AUTO 00000KT 10SM CLR 08/06 A3022 RMK AO2 T00760060
KY70 230435Z AUTO 00000KT 10SM CLR 08/06 A3022 RMK AO2 T00810056
KY70 230415Z AUTO 00000KT 10SM CLR 08/06 A3022 RMK AO2 T00820060
KY70 230355Z AUTO 00000KT 10SM CLR 09/06 A3022 RMK AO2 T00900061
KY70 230335Z AUTO 00000KT 10SM CLR 09/06 A3022 RMK AO2 T00850057
KY70 230315Z AUTO 00000KT 10SM CLR 09/06 A3022 RMK AO2 T00920056
KY70 230255Z AUTO 00000KT 10SM CLR 09/06 A3022 RMK AO2 T00860056
KY70 230235Z AUTO 00000KT 10SM CLR 11/06 A3023 RMK AO2 T01050057
KY70 230215Z AUTO 00000KT 10SM CLR 10/06 A3022 RMK AO2 T00960057
KY70 230155Z AUTO 15004KT 10SM CLR 10/06 A3023 RMK AO2 T00990056
KY70 230135Z AUTO 00000KT 10SM CLR 11/06 A3023 RMK AO2 T01080056
KY70 230115Z AUTO 00000KT 10SM CLR 11/06 A3023 RMK AO2 T01110056
KY70 230055Z AUTO 00000KT 10SM CLR 12/05 A3022 RMK AO2 T01150054
KY70 230035Z AUTO 04003KT 10SM CLR 12/05 A3022 RMK AO2 T01200050
KY70 230015Z AUTO 05003KT 10SM CLR 12/05 A3022 RMK AO2 T01230054
KY70 222355Z AUTO 04003KT 10SM CLR 13/05 A3022 RMK AO2 T01290053 10171 20129
KY70 222335Z AUTO 03003KT 10SM CLR 14/04 A3022 RMK AO2 T01390043
KY70 222315Z AUTO 03004KT 10SM CLR 15/03 A3023 RMK AO2 T01510030
KY70 222255Z AUTO 03004KT 10SM CLR 16/03 A3024 RMK AO2 T01610025
KY70 222235Z AUTO 00000KT 10SM CLR 16/01 A3024 RMK AO2 T01640013
KY70 222215Z AUTO 00000KT 10SM CLR 17/02 A3024 RMK AO2 T01660017
KY70 222155Z AUTO 11003KT 10SM CLR 17/01 A3024 RMK AO2 T01690013
KY70 222135Z AUTO 00000KT 10SM CLR 17/02 A3024 RMK AO2 T01700017
KY70 222115Z AUTO 00000KT 10SM CLR 17/00 A3024 RMK AO2 T01680002
KY70 222055Z AUTO 10004KT 10SM CLR 17/01 A3024 RMK AO2 T01680010
KY70 222035Z AUTO 13004KT 10SM CLR 17/01 A3025 RMK AO2 T01680013
KY70 222015Z AUTO 09003KT 10SM CLR 17/02 A3026 RMK AO2 T01670019
KY70 221955Z AUTO 00000KT 10SM CLR 17/01 A3027 RMK AO2 T01660008
KY70 221935Z AUTO 00000KT 10SM CLR 17/01 A3027 RMK AO2 T01650005
KY70 221915Z AUTO 13003KT 10SM CLR 16/01 A3028 RMK AO2 T01640008
KY70 221855Z AUTO 00000KT 10SM CLR 16/02 A3029 RMK AO2 T01600016
KY70 221835Z AUTO 03005KT 10SM CLR 16/01 A3029 RMK AO2 T01580006
KY70 221815Z AUTO 05004KT 10SM CLR 16/01 A3031 RMK AO2 T01560011
KY70 221755Z AUTO 04004KT 10SM CLR 15/01 A3032 RMK AO2 T01530010 10153 20069
KY70 221735Z AUTO 04008KT 010V070 10SM CLR 15/02 A3033 RMK AO2 T01520015
KY70 221715Z AUTO 08003KT 10SM CLR 15/01 A3033 RMK AO2 T01500009
KY70 221655Z AUTO 05008KT 10SM CLR 15/01 A3033 RMK AO2 T01480012
KY70 221635Z AUTO 04008KT 360V060 10SM CLR 14/02 A3034 RMK AO2 T01430015
KY70 221615Z AUTO 05005KT 10SM CLR 14/02 A3035 RMK AO2 T01410017
KY70 221555Z AUTO 03007KT 10SM CLR 14/02 A3035 RMK AO2 T01390024
KY70 221535Z AUTO 06008KT 10SM CLR 13/02 A3035 RMK AO2 T01340019
KY70 221515Z AUTO 07009KT 10SM CLR 13/03 A3035 RMK AO2 T01300027
KY70 221455Z AUTO 05008KT 10SM CLR 13/03 A3036 RMK AO2 T01250028
KY70 221435Z AUTO 06006KT 10SM CLR 12/04 A3035 RMK AO2 T01220038
KY70 221415Z AUTO 05006KT 10SM CLR 11/03 A3035 RMK AO2 T01130032
KY70 221355Z AUTO 04008KT 10SM CLR 11/04 A3035 RMK AO2 T01050035
KY70 221335Z AUTO 06006KT 10SM CLR 10/04 A3035 RMK AO2 T00950038